Time;durP1;ratioP1;P1;durP2;ratioP2;P2;SDS_P1;SDS_P2;PMS_P1;PMS_P2;Temp;Humidity;BMP_temperature;BMP_pressure;BME280_temperature;BME280_humidity;BME280_pressure;Samples;Min_cycle;Max_cycle;Signal;HPM_P1;HPM_P2
2022/07/11 00:01:21;;;;;;;3.53;1.75;;;23.40;99.90;;;;;;4137874;28;20276;-74
2022/07/11 00:03:24;;;;;;;1.90;1.73;;;23.40;99.90;;;;;;4120083;28;21033;-73
2022/07/11 00:05:28;;;;;;;2.63;1.58;;;23.30;99.90;;;;;;4125816;28;20621;-74
2022/07/11 00:07:30;;;;;;;2.55;1.60;;;23.30;99.90;;;;;;4133934;28;20619;-74
2022/07/11 00:09:33;;;;;;;2.75;1.80;;;23.30;99.90;;;;;;4137781;28;20213;-74
2022/07/11 00:11:35;;;;;;;2.30;1.70;;;23.40;99.90;;;;;;4139763;28;20264;-74
2022/07/11 00:13:38;;;;;;;1.95;1.50;;;23.30;99.90;;;;;;4135340;28;20221;-73
2022/07/11 00:15:40;;;;;;;1.98;1.55;;;23.30;99.90;;;;;;4138749;28;20695;-74
2022/07/11 00:17:43;;;;;;;2.17;1.75;;;23.30;99.90;;;;;;4136029;28;20312;-74
2022/07/11 00:19:45;;;;;;;2.83;2.00;;;23.30;99.90;;;;;;4128365;28;20629;-74
2022/07/11 00:21:50;;;;;;;3.25;1.85;;;23.30;99.90;;;;;;4138655;28;20260;-74
2022/07/11 00:23:52;;;;;;;1.70;1.60;;;23.30;99.90;;;;;;4139252;28;20240;-74
2022/07/11 00:25:55;;;;;;;2.92;1.63;;;23.30;99.90;;;;;;4130642;28;20266;-74
2022/07/11 00:27:57;;;;;;;2.20;1.63;;;23.30;99.90;;;;;;4134589;28;20214;-74
2022/07/11 00:30:00;;;;;;;2.03;1.60;;;23.30;99.90;;;;;;4125675;28;20210;-74
2022/07/11 00:32:02;;;;;;;2.03;1.70;;;23.30;99.90;;;;;;4140113;28;20217;-74
2022/07/11 00:34:04;;;;;;;1.40;1.30;;;23.30;99.90;;;;;;4132761;28;20214;-74
2022/07/11 00:36:07;;;;;;;2.00;1.77;;;23.30;99.90;;;;;;4136586;28;20218;-73
2022/07/11 00:38:11;;;;;;;2.10;1.90;;;23.30;99.90;;;;;;4143542;28;20692;-74
2022/07/11 00:40:13;;;;;;;2.33;1.80;;;23.30;99.90;;;;;;4139510;28;20341;-74
2022/07/11 00:42:17;;;;;;;2.50;1.67;;;23.30;99.90;;;;;;4133429;28;20229;-74
2022/07/11 00:44:20;;;;;;;2.60;1.70;;;23.30;99.90;;;;;;4137264;28;20284;-74
2022/07/11 00:46:23;;;;;;;1.85;1.58;;;23.30;99.90;;;;;;4142588;28;20233;-74
2022/07/11 00:48:25;;;;;;;3.85;1.90;;;23.30;99.90;;;;;;4141403;28;20276;-73
2022/07/11 00:50:28;;;;;;;2.67;1.75;;;23.30;99.90;;;;;;4132064;28;20260;-74
2022/07/11 00:52:30;;;;;;;2.00;1.75;;;23.30;99.90;;;;;;4131304;28;20217;-74
2022/07/11 00:54:34;;;;;;;2.08;1.60;;;23.30;99.90;;;;;;4137858;28;20276;-74
2022/07/11 00:56:36;;;;;;;2.00;1.77;;;23.30;99.90;;;;;;4135687;28;20271;-74
2022/07/11 00:58:39;;;;;;;2.10;1.90;;;23.30;99.90;;;;;;4131125;28;20297;-74
2022/07/11 01:00:42;;;;;;;3.75;1.42;;;23.30;99.90;;;;;;4134421;28;20268;-74
2022/07/11 01:02:44;;;;;;;2.20;1.85;;;23.30;99.90;;;;;;4134047;28;20309;-74
2022/07/11 01:04:47;;;;;;;1.90;1.70;;;23.20;99.90;;;;;;4137420;28;20249;-74
2022/07/11 01:06:49;;;;;;;1.90;1.63;;;23.30;99.90;;;;;;4129835;28;20260;-74
2022/07/11 01:08:52;;;;;;;1.85;1.50;;;23.20;99.90;;;;;;4135531;28;20217;-74
2022/07/11 01:10:55;;;;;;;2.75;1.80;;;23.30;99.90;;;;;;4132399;28;20229;-74
2022/07/11 01:12:58;;;;;;;1.80;1.67;;;23.20;99.90;;;;;;4138923;28;20224;-74
2022/07/11 01:15:05;;;;;;;2.80;1.77;;;23.20;99.90;;;;;;4143033;28;20243;-74
2022/07/11 01:17:07;;;;;;;2.05;1.85;;;23.20;99.90;;;;;;4133476;28;20299;-74
2022/07/11 01:19:10;;;;;;;2.08;1.85;;;23.30;99.90;;;;;;4137199;28;20220;-74
2022/07/11 01:21:21;;;;;;;2.30;1.75;;;23.20;99.90;;;;;;4141371;28;20731;-74
2022/07/11 01:23:25;;;;;;;1.73;1.55;;;23.20;99.90;;;;;;4144033;28;20255;-74
2022/07/11 01:25:34;;;;;;;2.17;1.58;;;23.20;99.90;;;;;;4134213;28;20229;-73
2022/07/11 01:27:37;;;;;;;3.25;1.40;;;23.20;99.90;;;;;;4137435;28;20224;-74
2022/07/11 01:29:40;;;;;;;1.85;1.60;;;23.20;99.90;;;;;;4140264;28;20558;-74
2022/07/11 01:31:43;;;;;;;2.72;1.65;;;23.20;99.90;;;;;;4129123;28;20273;-74
2022/07/11 01:33:46;;;;;;;2.58;1.75;;;23.20;99.90;;;;;;4133426;28;20264;-74
2022/07/11 01:35:48;;;;;;;2.10;1.80;;;23.20;99.90;;;;;;4136410;28;20218;-74
2022/07/11 01:37:51;;;;;;;2.20;2.00;;;23.20;99.90;;;;;;4120799;28;20218;-74
2022/07/11 01:39:54;;;;;;;1.80;1.70;;;23.20;99.90;;;;;;4132507;28;20221;-74
2022/07/11 01:41:57;;;;;;;2.78;1.77;;;23.10;99.90;;;;;;4132787;28;20214;-74
2022/07/11 01:44:00;;;;;;;1.92;1.70;;;23.20;99.90;;;;;;4135530;28;20237;-74
2022/07/11 01:46:02;;;;;;;1.85;1.60;;;23.20;99.90;;;;;;4133462;28;20218;-74
2022/07/11 01:48:05;;;;;;;3.10;1.98;;;23.20;99.90;;;;;;4139123;28;20229;-74
2022/07/11 01:50:08;;;;;;;2.63;1.80;;;23.20;99.90;;;;;;4136566;28;20214;-74
2022/07/11 01:52:11;;;;;;;1.77;1.67;;;23.20;99.90;;;;;;4128896;28;20269;-73
2022/07/11 01:54:13;;;;;;;3.35;1.85;;;23.20;99.90;;;;;;4132010;28;20214;-74
2022/07/11 01:56:17;;;;;;;2.15;1.80;;;23.20;99.90;;;;;;4141347;28;20256;-74
2022/07/11 01:58:19;;;;;;;2.70;1.95;;;23.20;99.90;;;;;;4137077;28;20264;-74
2022/07/11 02:00:21;;;;;;;2.03;1.70;;;23.20;99.90;;;;;;4132427;28;20721;-74
2022/07/11 02:02:24;;;;;;;1.92;1.73;;;23.20;99.90;;;;;;4139315;28;20272;-74
2022/07/11 02:04:26;;;;;;;2.20;1.55;;;23.20;99.90;;;;;;4142868;28;20237;-74
2022/07/11 02:06:29;;;;;;;2.85;2.08;;;23.20;99.90;;;;;;4133404;28;20276;-74
2022/07/11 02:08:31;;;;;;;2.00;1.80;;;23.20;99.90;;;;;;4136053;28;20213;-74
2022/07/11 02:10:33;;;;;;;2.35;1.73;;;23.20;99.90;;;;;;4135063;28;20264;-74
2022/07/11 02:12:37;;;;;;;2.95;1.83;;;23.10;99.90;;;;;;4145103;28;20221;-74
2022/07/11 02:14:39;;;;;;;2.90;1.80;;;23.10;99.90;;;;;;4143824;28;20218;-73
2022/07/11 02:16:42;;;;;;;2.40;1.80;;;23.10;99.90;;;;;;4137476;28;20264;-73
2022/07/11 02:18:44;;;;;;;2.38;1.65;;;23.20;99.90;;;;;;4158897;28;20216;-74
2022/07/11 02:20:48;;;;;;;2.30;1.80;;;23.10;99.90;;;;;;4155816;28;20221;-74
2022/07/11 02:22:51;;;;;;;3.35;1.98;;;23.10;99.90;;;;;;4154808;28;20239;-73
2022/07/11 02:24:53;;;;;;;2.88;1.98;;;23.10;99.90;;;;;;4148825;28;20233;-74
2022/07/11 02:26:56;;;;;;;2.38;1.80;;;23.10;99.90;;;;;;4143564;28;20256;-74
2022/07/11 02:28:59;;;;;;;2.17;1.85;;;23.10;99.90;;;;;;4153377;28;20221;-74
2022/07/11 02:31:02;;;;;;;2.53;1.90;;;23.10;99.90;;;;;;4156998;28;20267;-74
2022/07/11 02:33:07;;;;;;;2.42;1.90;;;23.10;99.90;;;;;;4151563;28;20221;-74
2022/07/11 02:35:09;;;;;;;2.55;1.73;;;23.10;99.90;;;;;;4153473;28;20224;-74
2022/07/11 02:37:12;;;;;;;2.33;1.85;;;23.10;99.90;;;;;;4155756;28;20221;-74
2022/07/11 02:39:14;;;;;;;2.70;1.80;;;23.10;99.90;;;;;;4159270;28;20626;-74
2022/07/11 02:41:18;;;;;;;2.13;1.70;;;23.10;99.90;;;;;;4150368;28;20224;-74
2022/07/11 02:43:20;;;;;;;2.28;1.80;;;23.10;99.90;;;;;;4153727;28;20259;-73
2022/07/11 02:45:24;;;;;;;2.63;1.88;;;23.00;99.90;;;;;;4151262;28;20240;-74
2022/07/11 02:47:26;;;;;;;2.83;1.90;;;23.10;99.90;;;;;;4160304;28;20270;-74
2022/07/11 02:49:30;;;;;;;3.22;2.20;;;23.10;99.90;;;;;;4150606;28;20698;-74
2022/07/11 02:51:32;;;;;;;2.53;2.28;;;23.10;99.90;;;;;;4142520;28;20271;-74
2022/07/11 02:53:34;;;;;;;2.13;1.80;;;23.00;99.90;;;;;;4139928;28;20241;-73
2022/07/11 02:55:36;;;;;;;2.90;2.20;;;23.10;99.90;;;;;;4159770;28;20293;-74
2022/07/11 02:57:39;;;;;;;2.65;1.92;;;23.10;99.90;;;;;;4151020;28;20266;-73
2022/07/11 02:59:42;;;;;;;2.63;1.98;;;23.00;99.90;;;;;;4152662;28;20255;-74
2022/07/11 03:01:46;;;;;;;2.25;1.67;;;23.10;99.90;;;;;;4155334;28;20272;-74
2022/07/11 03:03:48;;;;;;;2.25;1.95;;;23.00;99.90;;;;;;4149265;28;20259;-74
2022/07/11 03:05:50;;;;;;;2.20;2.00;;;23.10;99.90;;;;;;4151157;28;20264;-74
2022/07/11 03:07:53;;;;;;;2.72;1.90;;;23.10;99.90;;;;;;4151361;28;20224;-74
2022/07/11 03:09:56;;;;;;;2.25;1.75;;;23.00;99.90;;;;;;4147975;28;20214;-74
2022/07/11 03:11:58;;;;;;;3.55;1.90;;;23.00;99.90;;;;;;4151253;28;20214;-74
2022/07/11 03:14:01;;;;;;;3.38;2.15;;;23.00;99.90;;;;;;4157321;28;20260;-74
2022/07/11 03:16:03;;;;;;;2.15;1.92;;;23.00;99.90;;;;;;4155019;28;20213;-74
2022/07/11 03:18:07;;;;;;;2.20;1.92;;;23.00;99.90;;;;;;4132522;28;20266;-74
2022/07/11 03:20:11;;;;;;;3.97;2.00;;;23.00;99.90;;;;;;4138684;28;20615;-74
2022/07/11 03:22:13;;;;;;;2.13;1.90;;;23.00;99.90;;;;;;4143422;28;20225;-74
2022/07/11 03:24:16;;;;;;;1.88;1.67;;;23.00;99.90;;;;;;4140216;28;20222;-74
2022/07/11 03:26:18;;;;;;;2.33;2.00;;;23.00;99.90;;;;;;4134504;28;20280;-74
2022/07/11 03:28:20;;;;;;;2.67;2.13;;;23.00;99.90;;;;;;4133799;28;20275;-74
2022/07/11 03:30:23;;;;;;;2.30;1.95;;;23.00;99.90;;;;;;4145332;28;20217;-74
2022/07/11 03:32:25;;;;;;;2.00;1.80;;;23.00;99.90;;;;;;4138603;28;20632;-74
2022/07/11 03:34:29;;;;;;;3.47;2.10;;;23.00;99.90;;;;;;4135421;28;20276;-74
2022/07/11 03:36:31;;;;;;;2.38;2.05;;;23.00;99.90;;;;;;4134211;28;20719;-74
2022/07/11 03:38:34;;;;;;;2.35;1.90;;;22.90;99.90;;;;;;4131422;28;20265;-74
2022/07/11 03:40:36;;;;;;;2.53;2.05;;;23.00;99.90;;;;;;4125061;28;20371;-74
2022/07/11 03:42:38;;;;;;;1.95;1.75;;;23.00;99.90;;;;;;4133705;28;20214;-74
2022/07/11 03:44:41;;;;;;;2.50;1.95;;;23.00;99.90;;;;;;4140151;28;20217;-74
2022/07/11 03:46:43;;;;;;;2.53;1.77;;;23.00;99.90;;;;;;4138266;28;20614;-73
2022/07/11 03:48:46;;;;;;;2.10;1.90;;;23.00;99.90;;;;;;4137214;28;20602;-74
2022/07/11 03:50:50;;;;;;;2.00;1.73;;;23.00;99.90;;;;;;4132415;28;20240;-74
2022/07/11 03:52:53;;;;;;;2.47;1.83;;;23.00;99.90;;;;;;4130772;28;20214;-74
2022/07/11 03:54:55;;;;;;;2.35;1.92;;;23.00;99.90;;;;;;4135397;28;20320;-74
2022/07/11 03:56:57;;;;;;;2.30;2.03;;;23.00;99.90;;;;;;4139113;28;20256;-74
2022/07/11 03:59:00;;;;;;;3.15;1.90;;;23.00;99.90;;;;;;4130608;28;20257;-74
2022/07/11 04:01:02;;;;;;;2.50;1.75;;;22.90;99.90;;;;;;4136778;28;20271;-74
2022/07/11 04:03:05;;;;;;;2.80;2.10;;;22.90;99.90;;;;;;4137557;28;20213;-73
2022/07/11 04:05:08;;;;;;;2.38;1.77;;;23.00;99.90;;;;;;4138299;28;20292;-74
2022/07/11 04:07:12;;;;;;;2.65;1.98;;;22.90;99.90;;;;;;4131790;28;20277;-74
2022/07/11 04:09:14;;;;;;;2.17;1.90;;;23.00;99.90;;;;;;4135799;28;20221;-74
2022/07/11 04:11:16;;;;;;;1.80;1.70;;;22.90;99.90;;;;;;4138453;28;20276;-74
2022/07/11 04:13:19;;;;;;;2.55;2.15;;;22.90;99.90;;;;;;4142684;28;20221;-73
2022/07/11 04:15:22;;;;;;;4.35;2.28;;;22.90;99.90;;;;;;4130321;28;20265;-74
2022/07/11 04:17:24;;;;;;;2.17;1.70;;;22.90;99.90;;;;;;4128413;28;20248;-74
2022/07/11 04:19:29;;;;;;;2.22;2.03;;;22.90;99.90;;;;;;4130842;28;20248;-74
2022/07/11 04:21:32;;;;;;;2.90;1.80;;;22.90;99.90;;;;;;4134454;28;20673;-74
2022/07/11 04:23:36;;;;;;;2.47;2.13;;;22.90;99.90;;;;;;4140112;28;20664;-74
2022/07/11 04:25:38;;;;;;;2.50;1.90;;;22.90;99.90;;;;;;4134657;28;20241;-74
2022/07/11 04:27:40;;;;;;;2.03;1.83;;;22.90;99.90;;;;;;4133191;28;20222;-74
2022/07/11 04:29:42;;;;;;;2.15;1.90;;;22.90;99.90;;;;;;4136468;28;20226;-74
2022/07/11 04:31:45;;;;;;;2.58;1.98;;;22.90;99.90;;;;;;4140743;28;20218;-74
2022/07/11 04:33:47;;;;;;;3.03;2.00;;;22.90;99.90;;;;;;4131826;28;20268;-74
2022/07/11 04:35:49;;;;;;;2.60;2.03;;;22.90;99.90;;;;;;4135586;28;20210;-74
2022/07/11 04:37:52;;;;;;;1.85;1.70;;;22.90;99.90;;;;;;4140334;28;20268;-74
2022/07/11 04:39:55;;;;;;;2.28;1.85;;;22.90;99.90;;;;;;4138148;28;20218;-74
2022/07/11 04:41:58;;;;;;;2.10;1.90;;;22.90;99.90;;;;;;4125059;28;20272;-74
2022/07/11 04:44:00;;;;;;;2.42;2.00;;;22.90;99.90;;;;;;4136105;28;20257;-73
2022/07/11 04:46:03;;;;;;;2.10;1.90;;;22.90;99.90;;;;;;4140248;28;20280;-74
2022/07/11 04:48:06;;;;;;;3.58;2.17;;;22.90;99.90;;;;;;4142564;28;20263;-74
2022/07/11 04:50:09;;;;;;;2.97;2.00;;;22.90;99.90;;;;;;4131948;28;20744;-74
2022/07/11 04:52:11;;;;;;;2.05;1.80;;;22.90;99.90;;;;;;4129891;28;20273;-73
2022/07/11 04:54:15;;;;;;;2.85;2.10;;;22.90;99.90;;;;;;4122655;28;20221;-73
2022/07/11 04:56:19;;;;;;;2.90;2.20;;;22.90;99.90;;;;;;4134906;28;20282;-73
2022/07/11 04:58:21;;;;;;;2.20;1.85;;;22.90;99.90;;;;;;4131026;28;20213;-74
2022/07/11 05:00:23;;;;;;;2.22;1.80;;;22.90;99.90;;;;;;4133608;28;20622;-74
2022/07/11 05:02:26;;;;;;;4.10;2.20;;;22.90;99.90;;;;;;4139395;28;20268;-74
2022/07/11 05:04:28;;;;;;;2.20;2.00;;;22.90;99.90;;;;;;4128142;28;20271;-74
2022/07/11 05:06:30;;;;;;;2.95;2.30;;;22.90;99.90;;;;;;4139172;28;20236;-74
2022/07/11 05:08:36;;;;;;;2.60;2.10;;;22.90;99.90;;;;;;4133545;28;20272;-74
2022/07/11 05:10:38;;;;;;;2.63;1.88;;;22.90;99.90;;;;;;4133467;28;20225;-74
2022/07/11 05:12:42;;;;;;;3.45;2.25;;;22.90;99.90;;;;;;4137431;28;20284;-74
2022/07/11 05:14:44;;;;;;;3.42;2.10;;;22.90;99.90;;;;;;4129716;28;20218;-74
2022/07/11 05:16:46;;;;;;;2.35;2.10;;;22.90;99.90;;;;;;4131461;28;20241;-74
2022/07/11 05:18:48;;;;;;;4.05;2.00;;;22.90;99.90;;;;;;4154157;28;20554;-74
2022/07/11 05:20:51;;;;;;;3.38;2.10;;;22.90;99.90;;;;;;4157313;28;20216;-74
2022/07/11 05:22:53;;;;;;;4.50;2.20;;;22.90;99.90;;;;;;4160509;28;20262;-74
2022/07/11 05:24:55;;;;;;;2.00;1.90;;;22.90;99.90;;;;;;4149750;28;20221;-74
2022/07/11 05:26:58;;;;;;;2.25;1.92;;;22.90;99.90;;;;;;4153038;28;20279;-74
2022/07/11 05:29:01;;;;;;;2.05;1.83;;;22.90;99.90;;;;;;4156205;28;20216;-74
2022/07/11 05:31:04;;;;;;;2.60;2.00;;;22.90;99.90;;;;;;4146562;28;20677;-74
2022/07/11 05:33:06;;;;;;;2.90;2.20;;;23.00;99.90;;;;;;4147138;28;20225;-74
2022/07/11 05:35:09;;;;;;;3.00;2.10;;;22.90;99.90;;;;;;4152266;28;20254;-73
2022/07/11 05:37:11;;;;;;;3.28;2.30;;;23.00;99.90;;;;;;4147838;28;20210;-74
2022/07/11 05:39:15;;;;;;;2.28;2.08;;;23.00;99.90;;;;;;4150302;28;20229;-74
2022/07/11 05:41:17;;;;;;;2.42;2.22;;;23.00;99.90;;;;;;4159060;28;20244;-73
2022/07/11 05:43:19;;;;;;;2.42;2.00;;;22.90;99.90;;;;;;4156085;28;20262;-74
2022/07/11 05:45:23;;;;;;;2.45;2.10;;;23.00;99.90;;;;;;4153515;28;20221;-74
2022/07/11 05:47:25;;;;;;;4.45;2.03;;;23.00;99.90;;;;;;4149785;28;20715;-73
2022/07/11 05:49:28;;;;;;;2.45;1.90;;;23.00;99.90;;;;;;4161328;28;20611;-74
2022/07/11 05:51:30;;;;;;;2.78;2.13;;;23.00;99.90;;;;;;4143395;28;20271;-74
2022/07/11 05:53:32;;;;;;;2.35;1.90;;;23.00;99.90;;;;;;4154996;28;20221;-73
2022/07/11 05:55:35;;;;;;;2.58;2.00;;;23.00;99.90;;;;;;4158549;28;20221;-74
2022/07/11 05:57:37;;;;;;;3.33;2.10;;;22.90;99.90;;;;;;4161990;28;20271;-74
2022/07/11 05:59:39;;;;;;;2.92;1.92;;;23.00;99.90;;;;;;4153046;28;20283;-74
2022/07/11 06:01:43;;;;;;;4.78;2.40;;;23.00;99.90;;;;;;4156214;28;20542;-73
2022/07/11 06:03:46;;;;;;;2.72;2.05;;;23.00;99.90;;;;;;4159870;28;20209;-74
2022/07/11 06:05:49;;;;;;;3.88;2.05;;;23.00;99.90;;;;;;4155913;28;20340;-74
2022/07/11 06:10:11;;;;;;;3.08;2.00;;;23.00;99.90;;;;;;4155977;28;20205;-74
2022/07/11 06:12:13;;;;;;;2.83;2.00;;;23.00;99.90;;;;;;4159172;28;20247;-74
2022/07/11 06:14:16;;;;;;;2.65;1.98;;;23.00;99.90;;;;;;4153395;28;20258;-73
2022/07/11 06:16:18;;;;;;;2.42;1.92;;;23.00;99.90;;;;;;4148571;28;20270;-74
2022/07/11 06:18:23;;;;;;;2.53;2.17;;;23.00;99.90;;;;;;4154336;28;21084;-74
2022/07/11 06:20:25;;;;;;;2.42;2.15;;;23.00;99.90;;;;;;4157173;28;20267;-74
2022/07/11 06:22:27;;;;;;;2.00;1.83;;;23.00;99.90;;;;;;4153557;28;20220;-74
2022/07/11 06:24:30;;;;;;;4.05;2.00;;;23.00;99.90;;;;;;4150539;28;20715;-74
2022/07/11 06:26:32;;;;;;;2.78;1.92;;;23.00;99.90;;;;;;4154475;28;20770;-74
2022/07/11 06:28:35;;;;;;;2.33;1.90;;;23.00;99.90;;;;;;4158212;28;20224;-73
2022/07/11 06:30:37;;;;;;;2.22;1.80;;;23.00;99.90;;;;;;4155699;28;20220;-74
2022/07/11 06:32:40;;;;;;;2.47;1.90;;;23.00;99.90;;;;;;4149319;28;20267;-74
2022/07/11 06:34:44;;;;;;;2.90;1.80;;;23.00;99.90;;;;;;4154693;28;20972;-74
2022/07/11 06:36:47;;;;;;;2.10;1.80;;;23.00;99.90;;;;;;4149948;28;20242;-74
2022/07/11 06:38:49;;;;;;;2.78;2.10;;;23.00;99.90;;;;;;4162227;28;20266;-74
2022/07/11 06:40:53;;;;;;;2.17;1.88;;;23.00;99.90;;;;;;4149144;28;20260;-74
2022/07/11 06:42:55;;;;;;;1.90;1.80;;;23.00;99.90;;;;;;4150516;28;20263;-74
2022/07/11 06:44:58;;;;;;;3.60;2.22;;;23.00;99.90;;;;;;4155654;28;20275;-74
2022/07/11 06:47:00;;;;;;;2.55;2.13;;;23.00;99.90;;;;;;4140574;28;20241;-75
2022/07/11 06:49:02;;;;;;;6.90;2.20;;;22.90;99.90;;;;;;4134131;28;20222;-74
2022/07/11 06:51:06;;;;;;;5.68;2.58;;;22.90;99.90;;;;;;4142590;28;20221;-73
2022/07/11 06:53:09;;;;;;;4.43;3.10;;;22.80;99.90;;;;;;4140542;28;20284;-79
2022/07/11 06:55:11;;;;;;;7.78;2.33;;;22.90;99.90;;;;;;4156451;28;20212;-74
2022/07/11 06:57:13;;;;;;;8.15;3.08;;;22.80;99.90;;;;;;4149755;28;20213;-73
2022/07/11 06:59:16;;;;;;;28.65;5.10;;;22.90;99.90;;;;;;4152367;28;20213;-73
2022/07/11 07:01:18;;;;;;;9.38;3.30;;;22.90;99.90;;;;;;4155242;28;20216;-75
2022/07/11 07:03:20;;;;;;;10.98;3.42;;;22.80;99.90;;;;;;4158905;28;20220;-73
2022/07/11 07:05:26;;;;;;;9.00;2.95;;;22.80;99.90;;;;;;4141830;28;20230;-72
2022/07/11 07:07:30;;;;;;;11.13;4.18;;;22.80;99.90;;;;;;4150467;28;20240;-73
2022/07/11 07:09:32;;;;;;;10.48;4.38;;;22.80;99.90;;;;;;4144090;28;20221;-74
2022/07/11 07:11:34;;;;;;;9.90;4.20;;;22.70;99.90;;;;;;4141816;28;20256;-76
2022/07/11 07:13:37;;;;;;;13.63;4.63;;;22.50;99.90;;;;;;4139973;28;20216;-72
2022/07/11 07:15:39;;;;;;;10.38;4.97;;;22.50;99.90;;;;;;4140548;28;20225;-73
2022/07/11 07:17:42;;;;;;;14.57;4.80;;;22.60;99.90;;;;;;4142836;28;20279;-72
2022/07/11 07:19:44;;;;;;;14.75;5.63;;;22.40;99.90;;;;;;4144712;28;20225;-74
2022/07/11 07:21:47;;;;;;;15.95;5.70;;;22.40;99.90;;;;;;4146043;28;20271;-73
2022/07/11 07:23:51;;;;;;;14.00;6.20;;;22.40;99.90;;;;;;4145340;28;20222;-73
2022/07/11 07:25:53;;;;;;;12.93;6.22;;;22.30;99.90;;;;;;4143086;28;20254;-76
2022/07/11 07:27:55;;;;;;;10.70;5.75;;;22.30;99.90;;;;;;4148334;28;20704;-75
2022/07/11 07:29:58;;;;;;;14.23;5.78;;;22.30;99.90;;;;;;4150371;28;20248;-75
2022/07/11 07:32:00;;;;;;;12.35;5.65;;;22.20;99.90;;;;;;4145326;28;20698;-75
2022/07/11 07:34:02;;;;;;;12.25;5.78;;;22.20;99.90;;;;;;4146616;28;20259;-76
2022/07/11 07:36:05;;;;;;;15.18;5.75;;;22.20;99.90;;;;;;4146291;28;20645;-75
2022/07/11 07:38:07;;;;;;;11.82;5.13;;;22.30;99.90;;;;;;4138780;28;20300;-74
2022/07/11 07:40:11;;;;;;;13.10;5.40;;;22.30;99.90;;;;;;4137925;28;20221;-76
2022/07/11 07:42:13;;;;;;;12.80;4.82;;;22.30;99.90;;;;;;4135561;28;20264;-73
2022/07/11 07:44:16;;;;;;;8.18;4.60;;;22.30;99.90;;;;;;4147158;28;20225;-74
2022/07/11 07:46:18;;;;;;;12.27;4.97;;;22.40;99.90;;;;;;4149448;28;20278;-73
2022/07/11 07:48:21;;;;;;;8.82;5.15;;;22.40;99.90;;;;;;4144891;28;20275;-74
2022/07/11 07:50:23;;;;;;;9.95;4.95;;;22.20;99.90;;;;;;4144437;28;20628;-73
2022/07/11 07:52:27;;;;;;;33.55;6.35;;;22.30;99.90;;;;;;4142666;28;20291;-73
2022/07/11 21:06:59;;;;;;;3.45;3.15;;;25.00;99.90;;;;;;4111303;23;20355;-75
2022/07/11 21:09:01;;;;;;;3.03;2.60;;;25.00;99.90;;;;;;4063310;29;20212;-75
2022/07/11 21:11:03;;;;;;;4.35;3.28;;;24.90;99.90;;;;;;4063460;29;21104;-75
2022/07/11 21:13:06;;;;;;;2.72;2.53;;;24.90;99.90;;;;;;4061330;29;20280;-76
2022/07/11 21:15:09;;;;;;;3.20;2.90;;;25.00;99.90;;;;;;4063989;29;20288;-75
2022/07/11 21:17:11;;;;;;;3.20;2.90;;;25.00;99.90;;;;;;4060557;29;20264;-76
2022/07/11 21:19:13;;;;;;;3.53;3.22;;;25.00;99.90;;;;;;4063563;29;20220;-75
2022/07/11 21:21:16;;;;;;;3.33;3.03;;;25.00;99.90;;;;;;4061412;29;20305;-75
2022/07/11 21:23:19;;;;;;;3.85;3.10;;;24.90;99.90;;;;;;4062361;29;20224;-75
2022/07/11 21:25:21;;;;;;;3.40;3.10;;;24.90;99.90;;;;;;4064052;29;20232;-76
2022/07/11 21:27:24;;;;;;;3.50;3.20;;;24.90;99.90;;;;;;4062945;29;20221;-75
2022/07/11 21:29:26;;;;;;;3.13;2.92;;;24.90;99.90;;;;;;4062039;29;20281;-76
2022/07/11 21:31:28;;;;;;;3.47;3.17;;;24.90;99.90;;;;;;4063778;29;20236;-75
2022/07/11 21:33:31;;;;;;;3.33;2.72;;;24.90;99.90;;;;;;4064393;29;20232;-76
2022/07/11 21:35:34;;;;;;;3.10;2.80;;;24.90;99.90;;;;;;4064415;29;20287;-76
2022/07/11 21:37:37;;;;;;;3.17;2.80;;;24.90;99.90;;;;;;4063828;29;20729;-76
2022/07/11 21:39:41;;;;;;;3.15;2.85;;;24.90;99.90;;;;;;4060883;29;20619;-76
2022/07/11 21:41:43;;;;;;;2.78;2.58;;;24.90;99.90;;;;;;4064313;29;20213;-76
2022/07/11 21:43:45;;;;;;;3.17;2.88;;;24.90;99.90;;;;;;4063979;29;20224;-76
2022/07/11 21:45:48;;;;;;;3.13;2.80;;;24.90;99.90;;;;;;4063942;29;20236;-76
2022/07/11 21:47:50;;;;;;;3.40;3.10;;;24.90;99.90;;;;;;4062679;29;20271;-76
2022/07/11 21:49:52;;;;;;;3.30;2.83;;;24.90;99.90;;;;;;4063987;29;20224;-76
2022/07/11 21:51:55;;;;;;;3.08;2.78;;;24.90;99.90;;;;;;4064104;29;20240;-76
2022/07/11 21:53:57;;;;;;;2.88;2.67;;;24.90;99.90;;;;;;4064177;29;20736;-76
2022/07/11 21:56:01;;;;;;;3.00;2.80;;;24.90;99.90;;;;;;4063137;29;20220;-76
2022/07/11 21:58:03;;;;;;;3.20;2.80;;;24.80;99.90;;;;;;4062692;29;20220;-76
2022/07/11 22:00:08;;;;;;;3.10;2.90;;;24.80;99.90;;;;;;4063831;29;20725;-76
2022/07/11 22:02:12;;;;;;;3.13;2.80;;;24.80;99.90;;;;;;4064253;29;20220;-75
2022/07/11 22:04:15;;;;;;;3.22;2.90;;;24.80;99.90;;;;;;4063600;29;20295;-76
2022/07/11 22:06:17;;;;;;;2.92;2.67;;;24.80;99.90;;;;;;4063356;29;20287;-76
2022/07/11 22:08:19;;;;;;;3.00;2.80;;;24.80;99.90;;;;;;4063770;29;20264;-76
2022/07/11 22:10:22;;;;;;;3.25;2.97;;;24.80;99.90;;;;;;4064062;29;20216;-76
2022/07/11 22:12:26;;;;;;;2.70;2.50;;;24.80;99.90;;;;;;4063996;29;20267;-76
2022/07/11 22:14:29;;;;;;;2.47;2.30;;;24.80;99.90;;;;;;4063144;29;20626;-76
2022/07/11 22:16:31;;;;;;;3.30;2.97;;;24.80;99.90;;;;;;4061582;29;20224;-76
2022/07/11 22:18:33;;;;;;;3.00;2.80;;;24.80;99.90;;;;;;4063802;29;20320;-76
2022/07/11 22:20:36;;;;;;;3.13;2.90;;;24.80;99.90;;;;;;4063758;29;20729;-76
2022/07/11 22:22:38;;;;;;;3.72;3.10;;;24.80;99.90;;;;;;4062719;29;20627;-76
2022/07/11 22:24:40;;;;;;;3.25;2.95;;;24.80;99.90;;;;;;4066452;29;20224;-76
2022/07/11 22:26:42;;;;;;;3.17;2.88;;;24.70;99.90;;;;;;4064530;29;20972;-76
2022/07/11 22:28:46;;;;;;;2.83;2.63;;;24.70;99.90;;;;;;4066859;29;20275;-75
2022/07/11 22:30:49;;;;;;;3.30;3.00;;;24.80;99.90;;;;;;4065365;29;20244;-76
2022/07/11 22:32:51;;;;;;;3.00;2.80;;;24.70;99.90;;;;;;4066282;29;20300;-76
2022/07/11 22:34:53;;;;;;;2.78;2.58;;;24.70;99.90;;;;;;4066206;29;20221;-76
2022/07/11 22:36:56;;;;;;;3.00;2.80;;;24.70;99.90;;;;;;4066561;29;20275;-76
2022/07/11 22:38:58;;;;;;;2.90;2.70;;;24.70;99.90;;;;;;4064870;29;20263;-75
2022/07/11 22:41:00;;;;;;;2.97;2.67;;;24.70;99.90;;;;;;4066748;29;20216;-75
2022/07/11 22:43:12;;;;;;;3.05;2.78;;;24.70;99.90;;;;;;4066403;29;20285;-75
2022/07/11 22:45:15;;;;;;;3.10;2.78;;;24.70;99.90;;;;;;4066890;29;20292;-75
2022/07/11 22:47:18;;;;;;;3.08;2.78;;;24.70;99.90;;;;;;4065456;29;20232;-75
2022/07/11 22:49:20;;;;;;;2.90;2.70;;;24.70;99.90;;;;;;4067369;29;20217;-75
2022/07/11 22:51:22;;;;;;;3.03;2.80;;;24.70;99.90;;;;;;4064463;29;20241;-75
2022/07/11 22:53:25;;;;;;;3.55;3.08;;;24.70;99.90;;;;;;4059735;29;20280;-75
2022/07/11 22:55:27;;;;;;;2.75;2.55;;;24.60;99.90;;;;;;4065730;29;20289;-75
2022/07/11 22:57:29;;;;;;;2.70;2.50;;;24.60;99.90;;;;;;4061107;29;20229;-75
2022/07/11 22:59:32;;;;;;;2.67;2.40;;;24.60;99.90;;;;;;4067289;29;20280;-75
2022/07/11 23:01:35;;;;;;;2.80;2.60;;;24.60;99.90;;;;;;4067106;29;20276;-75
2022/07/11 23:03:38;;;;;;;2.80;2.60;;;24.60;99.90;;;;;;4066224;29;21261;-75
2022/07/11 23:05:40;;;;;;;3.40;2.75;;;24.60;99.90;;;;;;4066948;29;20339;-75
2022/07/11 23:07:42;;;;;;;3.30;3.00;;;24.60;99.90;;;;;;4067261;29;20221;-75
2022/07/11 23:09:45;;;;;;;2.63;2.38;;;24.60;99.90;;;;;;4067307;29;20221;-75
2022/07/11 23:11:47;;;;;;;3.00;2.80;;;24.60;99.90;;;;;;4065297;29;20363;-76
2022/07/11 23:13:49;;;;;;;2.70;2.50;;;24.60;99.90;;;;;;4065450;29;20212;-75
2022/07/11 23:15:52;;;;;;;2.60;2.40;;;24.60;99.90;;;;;;4063094;29;20220;-75
2022/07/11 23:17:55;;;;;;;2.38;2.17;;;24.60;99.90;;;;;;4067325;29;20725;-75
2022/07/11 23:19:58;;;;;;;3.22;2.38;;;24.60;99.90;;;;;;4066953;29;20268;-75
2022/07/11 23:22:00;;;;;;;2.90;2.70;;;24.60;99.90;;;;;;4065158;29;20979;-76
2022/07/11 23:24:02;;;;;;;2.50;2.30;;;24.50;99.90;;;;;;4067136;29;20220;-76
2022/07/11 23:26:05;;;;;;;2.80;2.60;;;24.60;99.90;;;;;;4067130;29;20300;-76
2022/07/11 23:28:07;;;;;;;2.78;2.58;;;24.50;99.90;;;;;;4066732;29;20221;-76
2022/07/11 23:30:11;;;;;;;2.47;2.28;;;24.50;99.90;;;;;;4066371;29;20253;-76
2022/07/11 23:32:13;;;;;;;2.47;2.28;;;24.50;99.90;;;;;;4066763;29;20236;-76
2022/07/11 23:34:17;;;;;;;2.65;2.42;;;24.50;99.90;;;;;;4066576;29;20235;-76
2022/07/11 23:36:19;;;;;;;3.33;3.03;;;24.50;99.90;;;;;;4066894;29;20249;-76
2022/07/11 23:38:21;;;;;;;2.88;2.67;;;24.50;99.90;;;;;;4066140;29;20232;-76
2022/07/11 23:40:24;;;;;;;2.85;2.65;;;24.50;99.90;;;;;;4060901;29;20272;-76
2022/07/11 23:42:26;;;;;;;3.33;2.80;;;24.50;99.90;;;;;;4066601;29;20224;-76
2022/07/11 23:44:28;;;;;;;2.95;2.50;;;24.50;99.90;;;;;;4066349;29;20232;-76
2022/07/11 23:46:31;;;;;;;2.55;2.35;;;24.50;99.90;;;;;;4065134;29;20229;-76
2022/07/11 23:48:34;;;;;;;2.80;2.50;;;24.50;99.90;;;;;;4066856;29;20347;-76
2022/07/11 23:50:38;;;;;;;2.63;2.42;;;24.50;99.90;;;;;;4066388;29;20673;-76
2022/07/11 23:52:40;;;;;;;2.85;2.45;;;24.50;99.90;;;;;;4066052;29;20244;-76